Time;durP1;ratioP1;P1;durP2;ratioP2;P2;SDS_P1;SDS_P2;PMS_P1;PMS_P2;Temp;Humidity;BMP_temperature;BMP_pressure;BME280_temperature;BME280_humidity;BME280_pressure;Samples;Min_cycle;Max_cycle;Signal;HPM_P1;HPM_P2
2022/08/01 00:00:07;;;;;;;6.72;6.43;;;;;;;-143.83;100.00;62900.06;5113475;28;20111;-61
2022/08/01 00:02:33;;;;;;;6.68;6.38;;;;;;;-143.83;100.00;62900.06;5114230;28;20452;-62
2022/08/01 00:04:59;;;;;;;6.60;6.30;;;;;;;-143.83;100.00;62900.06;5114878;28;20070;-61
2022/08/01 00:07:25;;;;;;;6.70;6.40;;;;;;;-143.83;100.00;62900.06;5114372;28;20034;-61
2022/08/01 00:09:51;;;;;;;6.63;6.32;;;;;;;-143.83;100.00;62900.06;5112105;28;20019;-60
2022/08/01 00:12:17;;;;;;;6.75;6.45;;;;;;;-143.83;100.00;62900.06;5114052;27;20027;-61
2022/08/01 00:14:42;;;;;;;6.82;6.53;;;;;;;-143.83;100.00;62900.06;5111665;28;20107;-62
2022/08/01 00:17:08;;;;;;;6.80;6.50;;;;;;;-143.83;100.00;62900.06;5114397;28;20077;-61
2022/08/01 00:19:33;;;;;;;7.00;6.70;;;;;;;-143.83;100.00;62900.06;5114028;28;20395;-61
2022/08/01 00:21:59;;;;;;;6.70;6.40;;;;;;;-143.83;100.00;62900.06;5114141;28;20114;-60
2022/08/01 00:24:25;;;;;;;6.80;6.50;;;;;;;-143.83;100.00;62900.06;5113082;28;20034;-62
2022/08/01 00:26:50;;;;;;;6.78;6.47;;;;;;;-143.83;100.00;62900.06;5114004;28;20083;-61
2022/08/01 00:29:16;;;;;;;6.90;6.60;;;;;;;-143.83;100.00;62900.06;5113563;27;20029;-61
2022/08/01 00:31:41;;;;;;;6.72;6.43;;;;;;;-143.83;100.00;62900.06;5113977;28;20024;-61
2022/08/01 00:34:06;;;;;;;6.85;6.55;;;;;;;-143.83;100.00;62900.06;5113588;28;20131;-60
2022/08/01 00:36:32;;;;;;;6.75;6.45;;;;;;;-143.83;100.00;62900.06;5118928;27;20094;-62
2022/08/01 00:38:58;;;;;;;6.82;6.53;;;;;;;-143.83;100.00;62900.06;5131838;27;20035;-61
2022/08/01 00:41:23;;;;;;;6.80;6.50;;;;;;;-143.83;100.00;62900.06;5113676;28;20026;-61
2022/08/01 00:43:49;;;;;;;6.65;6.35;;;;;;;-143.83;100.00;62900.06;5113924;28;20023;-59
2022/08/01 00:46:14;;;;;;;6.80;6.50;;;;;;;-143.83;100.00;62900.06;5118915;27;20031;-62
2022/08/01 00:48:40;;;;;;;6.90;6.60;;;;;;;-143.83;100.00;62900.06;5113535;28;20054;-61
2022/08/01 00:51:06;;;;;;;6.88;6.57;;;;;;;-143.83;100.00;62900.06;5112451;28;20032;-61
2022/08/01 00:53:32;;;;;;;6.97;6.68;;;;;;;-143.83;100.00;62900.06;5113488;28;20038;-62
2022/08/01 00:55:58;;;;;;;7.20;6.90;;;;;;;-143.83;100.00;62900.06;5113106;28;20023;-61
2022/08/01 00:58:24;;;;;;;6.97;6.68;;;;;;;-143.83;100.00;62900.06;5113702;28;20035;-62
2022/08/01 01:00:49;;;;;;;6.90;6.60;;;;;;;-143.83;100.00;62900.06;5113876;28;20760;-61
2022/08/01 01:03:15;;;;;;;7.00;6.70;;;;;;;-143.83;100.00;62900.06;5118197;27;20055;-60
2022/08/01 01:05:54;;;;;;;6.90;6.60;;;;;;;-143.83;100.00;62900.06;5113483;28;20518;-61
2022/08/01 01:08:27;;;;;;;7.15;6.85;;;;;;;-143.83;100.00;62900.06;5113335;28;20135;-61
2022/08/01 01:11:10;;;;;;;6.90;6.60;;;;;;;-143.83;100.00;62900.06;5108750;27;20019;-62
2022/08/01 01:13:43;;;;;;;6.80;6.50;;;;;;;-143.83;100.00;62900.06;5113210;28;20111;-61
2022/08/01 01:16:13;;;;;;;7.10;6.80;;;;;;;-143.83;100.00;62900.06;5113105;28;20027;-61
2022/08/01 01:18:47;;;;;;;6.70;6.40;;;;;;;-143.83;100.00;62900.06;5111999;28;20499;-60
2022/08/01 01:21:19;;;;;;;6.90;6.60;;;;;;;-143.83;100.00;62900.06;5113173;28;20031;-61
2022/08/01 01:24:00;;;;;;;6.78;6.47;;;;;;;-143.83;100.00;62900.06;5113296;28;20032;-61
2022/08/01 01:26:28;;;;;;;6.88;6.57;;;;;;;-143.83;100.00;62900.06;5112727;28;20024;-62
2022/08/01 01:29:05;;;;;;;6.78;6.47;;;;;;;-143.83;100.00;62900.06;5110427;28;20410;-61
2022/08/01 01:31:36;;;;;;;6.88;6.57;;;;;;;-143.83;100.00;62900.06;5113198;28;20364;-62
2022/08/01 01:34:04;;;;;;;7.20;6.90;;;;;;;-143.83;100.00;62900.06;5115866;27;20402;-61
2022/08/01 01:36:31;;;;;;;6.80;6.50;;;;;;;-143.83;100.00;62900.06;5114992;27;20030;-60
2022/08/01 01:38:57;;;;;;;7.00;6.70;;;;;;;-143.83;100.00;62900.06;5114046;27;20032;-61
2022/08/01 01:41:24;;;;;;;7.10;6.80;;;;;;;-143.83;100.00;62900.06;5110927;28;20413;-61
2022/08/01 01:43:51;;;;;;;7.20;6.90;;;;;;;-143.83;100.00;62900.06;5104830;28;20020;-61
2022/08/01 01:46:22;;;;;;;7.05;6.75;;;;;;;-143.83;100.00;62900.06;5109351;28;20019;-60
2022/08/01 01:48:49;;;;;;;6.85;6.55;;;;;;;-143.83;100.00;62900.06;5112035;28;20038;-61
2022/08/01 01:51:15;;;;;;;7.20;6.90;;;;;;;-143.83;100.00;62900.06;5112031;28;20026;-61
2022/08/01 01:53:42;;;;;;;6.82;6.53;;;;;;;-143.83;100.00;62900.06;5115351;27;20027;-61
2022/08/01 01:56:09;;;;;;;6.90;6.60;;;;;;;-143.83;100.00;62900.06;5118829;27;20019;-61
2022/08/01 01:58:39;;;;;;;7.00;6.70;;;;;;;-143.83;100.00;62900.06;5112585;28;20027;-61
2022/08/01 02:01:06;;;;;;;7.00;6.70;;;;;;;-143.83;100.00;62900.06;5112187;28;20433;-61
2022/08/01 02:03:36;;;;;;;6.97;6.68;;;;;;;-143.83;100.00;62900.06;5111951;28;20051;-61
2022/08/01 02:06:02;;;;;;;7.20;6.90;;;;;;;-143.83;100.00;62900.06;5112259;28;20379;-61
2022/08/01 02:08:30;;;;;;;6.82;6.53;;;;;;;-143.83;100.00;62900.06;5111097;28;20024;-61
2022/08/01 02:13:44;;;;;;;7.30;7.00;;;;;;;-143.83;100.00;62900.06;5111176;28;20226;-61
2022/08/01 02:16:13;;;;;;;6.90;6.60;;;;;;;-143.83;100.00;62900.06;5111543;28;20028;-61
2022/08/01 02:18:40;;;;;;;7.28;6.97;;;;;;;-143.83;100.00;62900.06;5111516;28;20032;-62
2022/08/01 02:21:11;;;;;;;6.88;6.57;;;;;;;-143.83;100.00;62900.06;5111528;28;20024;-62
2022/08/01 02:23:38;;;;;;;6.78;6.47;;;;;;;-143.83;100.00;62900.06;5112216;28;20019;-60
2022/08/01 02:26:10;;;;;;;7.03;6.72;;;;;;;-143.83;100.00;62900.06;5108987;28;20032;-61
2022/08/01 02:28:59;;;;;;;7.07;6.78;;;;;;;-143.83;100.00;62900.06;5111721;28;20061;-61
2022/08/01 02:31:26;;;;;;;6.88;6.57;;;;;;;-143.83;100.00;62900.06;5118874;27;20046;-61
2022/08/01 02:34:05;;;;;;;6.88;6.57;;;;;;;-143.83;100.00;62900.06;5115981;28;20031;-61
2022/08/01 02:36:34;;;;;;;6.90;6.60;;;;;;;-143.83;100.00;62900.06;5116087;28;20023;-61
2022/08/01 02:39:11;;;;;;;7.03;6.72;;;;;;;-143.83;100.00;62900.06;5114850;28;20110;-62
2022/08/01 02:41:42;;;;;;;6.80;6.50;;;;;;;-143.83;100.00;62900.06;5115862;27;20076;-62
2022/08/01 02:44:10;;;;;;;6.80;6.50;;;;;;;-143.83;100.00;62900.06;5115184;28;20107;-61
2022/08/01 02:46:44;;;;;;;6.75;6.45;;;;;;;-143.83;100.00;62900.06;5118781;27;20015;-60
2022/08/01 02:49:11;;;;;;;6.68;6.38;;;;;;;-143.83;100.00;62900.06;5116196;28;20026;-62
2022/08/01 02:51:40;;;;;;;7.00;6.70;;;;;;;-143.83;100.00;62900.06;5116221;28;20035;-62
2022/08/01 02:54:09;;;;;;;6.80;6.50;;;;;;;-143.83;100.00;62900.06;5116180;28;20082;-61
2022/08/01 02:56:36;;;;;;;6.72;6.43;;;;;;;-143.83;100.00;62900.06;5115193;28;20043;-61
2022/08/01 02:59:09;;;;;;;6.88;6.57;;;;;;;-143.83;100.00;62900.06;5115644;28;20312;-61
2022/08/01 03:01:36;;;;;;;6.90;6.60;;;;;;;-143.83;100.00;62900.06;5115630;27;20022;-61
2022/08/01 03:04:05;;;;;;;6.88;6.57;;;;;;;-143.83;100.00;62900.06;5115576;28;20099;-61
2022/08/01 03:06:32;;;;;;;6.80;6.50;;;;;;;-143.83;100.00;62900.06;5113947;28;20363;-61
2022/08/01 03:08:59;;;;;;;6.93;6.63;;;;;;;-143.83;100.00;62900.06;5104852;28;20027;-61
2022/08/01 03:11:28;;;;;;;6.72;6.43;;;;;;;-143.83;100.00;62900.06;5114447;28;20027;-62
2022/08/01 03:13:55;;;;;;;7.13;6.82;;;;;;;-143.83;100.00;62900.06;5115507;28;20032;-61
2022/08/01 03:16:23;;;;;;;6.80;6.50;;;;;;;-143.83;100.00;62900.06;5115518;28;20110;-61
2022/08/01 03:18:51;;;;;;;6.60;6.30;;;;;;;-143.83;100.00;62900.06;5115306;27;20063;-62
2022/08/01 03:21:19;;;;;;;6.95;6.65;;;;;;;-143.83;100.00;62900.06;5115541;28;20363;-62
2022/08/01 03:23:45;;;;;;;6.70;6.40;;;;;;;-143.83;100.00;62900.06;5115398;28;20031;-61
2022/08/01 03:26:11;;;;;;;7.03;6.72;;;;;;;-143.83;100.00;62900.06;5115023;27;20023;-61
2022/08/01 03:28:40;;;;;;;6.72;6.43;;;;;;;-143.83;100.00;62900.06;5115214;28;20512;-60
2022/08/01 03:31:05;;;;;;;6.80;6.50;;;;;;;-143.83;100.00;62900.06;5114853;28;20032;-61
2022/08/01 03:33:31;;;;;;;6.82;6.53;;;;;;;-143.83;100.00;62900.06;5114670;28;20110;-62
2022/08/01 03:36:01;;;;;;;7.00;6.70;;;;;;;-143.83;100.00;62900.06;5114037;27;20026;-61
2022/08/01 03:38:30;;;;;;;6.90;6.60;;;;;;;-143.83;100.00;62900.06;5114875;28;20031;-61
2022/08/01 03:41:08;;;;;;;7.00;6.70;;;;;;;-143.83;100.00;62900.06;5114342;28;20034;-61
2022/08/01 03:43:48;;;;;;;6.90;6.60;;;;;;;-143.83;100.00;62900.06;5107805;28;20048;-60
2022/08/01 03:46:20;;;;;;;6.88;6.57;;;;;;;-143.83;100.00;62900.06;5109091;28;20031;-61
2022/08/01 03:48:48;;;;;;;6.90;6.60;;;;;;;-143.83;100.00;62900.06;5114448;28;20066;-62
2022/08/01 03:51:15;;;;;;;6.80;6.50;;;;;;;-143.83;100.00;62900.06;5114376;28;20364;-62
2022/08/01 03:53:42;;;;;;;6.97;6.68;;;;;;;-143.83;100.00;62900.06;5114403;27;20028;-62
2022/08/01 03:56:08;;;;;;;7.00;6.70;;;;;;;-143.83;100.00;62900.06;5114091;28;20020;-62
2022/08/01 03:58:36;;;;;;;7.55;7.25;;;;;;;-143.83;100.00;62900.06;5107690;27;20110;-62
2022/08/01 04:01:02;;;;;;;7.13;6.82;;;;;;;-143.83;100.00;62900.06;5110721;28;20573;-62
2022/08/01 04:03:27;;;;;;;7.00;6.70;;;;;;;-143.83;100.00;62900.06;5112729;28;20066;-62
2022/08/01 04:05:53;;;;;;;7.10;6.80;;;;;;;-143.83;100.00;62900.06;5112988;28;20215;-62
2022/08/01 04:08:18;;;;;;;7.10;6.80;;;;;;;-143.83;100.00;62900.06;5112470;28;20019;-62
2022/08/01 04:10:44;;;;;;;7.00;6.70;;;;;;;-143.83;100.00;62900.06;5111594;27;20031;-62
2022/08/01 04:13:10;;;;;;;7.40;7.10;;;;;;;-143.83;100.00;62900.06;5108292;28;20028;-61
2022/08/01 04:15:35;;;;;;;7.00;6.70;;;;;;;-143.83;100.00;62900.06;5113692;28;20050;-62
2022/08/01 04:18:01;;;;;;;7.03;6.72;;;;;;;-143.83;100.00;62900.06;5113036;28;20039;-62
2022/08/01 04:20:26;;;;;;;7.28;6.97;;;;;;;-143.83;100.00;62900.06;5113706;28;20027;-61
2022/08/01 04:22:52;;;;;;;6.80;6.50;;;;;;;-143.83;100.00;62900.06;5119388;27;20031;-61
2022/08/01 04:25:23;;;;;;;7.18;6.88;;;;;;;-143.83;100.00;62900.06;5111636;28;20024;-61
2022/08/01 04:27:52;;;;;;;6.93;6.63;;;;;;;-143.83;100.00;62900.06;5108862;27;20031;-61
2022/08/01 04:30:25;;;;;;;7.10;6.80;;;;;;;-143.83;100.00;62900.06;5113743;28;20053;-62
2022/08/01 04:32:54;;;;;;;7.10;6.80;;;;;;;-143.83;100.00;62900.06;5112824;28;20120;-61
2022/08/01 04:35:20;;;;;;;7.25;6.95;;;;;;;-143.83;100.00;62900.06;5106967;27;20479;-62
2022/08/01 04:37:50;;;;;;;7.20;6.90;;;;;;;-143.83;100.00;62900.06;5115710;27;20115;-62
2022/08/01 04:40:17;;;;;;;7.40;7.10;;;;;;;-143.83;100.00;62900.06;5118751;27;20390;-61
2022/08/01 04:42:42;;;;;;;7.10;6.80;;;;;;;-143.83;100.00;62900.06;5101937;27;20105;-62
2022/08/01 04:45:09;;;;;;;7.25;6.95;;;;;;;-143.83;100.00;62900.06;5113135;27;20478;-61
2022/08/01 04:47:36;;;;;;;7.20;6.90;;;;;;;-143.83;100.00;62900.06;5113970;27;20031;-63
2022/08/01 04:50:06;;;;;;;7.03;6.72;;;;;;;-143.83;100.00;62900.06;5110913;27;20024;-62
2022/08/01 04:52:36;;;;;;;7.22;6.93;;;;;;;-143.83;100.00;62900.06;5103233;28;20398;-62
2022/08/01 04:55:03;;;;;;;7.10;6.80;;;;;;;-143.83;100.00;62900.06;5111971;27;20155;-61
2022/08/01 04:57:30;;;;;;;7.10;6.80;;;;;;;-143.83;100.00;62900.06;5127307;27;20027;-62
2022/08/01 04:59:56;;;;;;;7.30;7.00;;;;;;;-143.83;100.00;62900.06;5108877;28;20027;-62
2022/08/01 05:02:22;;;;;;;7.00;6.70;;;;;;;-143.83;100.00;62900.06;5103505;28;20048;-61
2022/08/01 05:04:48;;;;;;;7.20;6.90;;;;;;;-143.83;100.00;62900.06;5116848;27;20027;-62
2022/08/01 05:07:13;;;;;;;7.20;6.90;;;;;;;-143.83;100.00;62900.06;5103632;27;20455;-61
2022/08/01 05:09:45;;;;;;;7.20;6.90;;;;;;;-143.83;100.00;62900.06;5109460;27;20019;-62
2022/08/01 05:12:11;;;;;;;7.30;7.00;;;;;;;-143.83;100.00;62900.06;5107123;28;20027;-62
2022/08/01 05:14:37;;;;;;;7.07;6.78;;;;;;;-143.83;100.00;62900.06;5111582;28;20024;-63
2022/08/01 05:17:04;;;;;;;7.28;6.97;;;;;;;-143.83;100.00;62900.06;5109364;27;20046;-62
2022/08/01 05:19:33;;;;;;;7.47;7.18;;;;;;;-143.83;100.00;62900.06;5106220;27;20031;-62
2022/08/01 05:22:06;;;;;;;7.28;6.97;;;;;;;-143.83;100.00;62900.06;5114045;27;20080;-61
2022/08/01 05:24:37;;;;;;;7.38;7.07;;;;;;;-143.83;100.00;62900.06;5115576;27;20030;-62
2022/08/01 05:27:04;;;;;;;7.40;7.10;;;;;;;-143.83;100.00;62900.06;5116388;27;20034;-62
2022/08/01 05:29:30;;;;;;;7.47;7.18;;;;;;;-143.83;100.00;62900.06;5116492;27;20030;-62
2022/08/01 05:31:56;;;;;;;7.45;7.15;;;;;;;-143.83;100.00;62900.06;5111825;27;20032;-62
2022/08/01 05:34:22;;;;;;;7.50;7.20;;;;;;;-143.83;100.00;62900.06;5116676;27;20362;-62
2022/08/01 05:36:47;;;;;;;7.68;7.38;;;;;;;-143.83;100.00;62900.06;5108271;28;20016;-61
2022/08/01 05:39:13;;;;;;;7.55;7.25;;;;;;;-143.83;100.00;62900.06;5111226;28;20062;-62
2022/08/01 05:41:39;;;;;;;7.80;7.50;;;;;;;-143.83;100.00;62900.06;5112720;27;20400;-62
2022/08/01 05:44:05;;;;;;;7.75;7.45;;;;;;;-143.83;100.00;62900.06;5113358;27;20566;-62
2022/08/01 05:46:31;;;;;;;7.60;7.30;;;;;;;-143.83;100.00;62900.06;5116510;27;20109;-62
2022/08/01 05:49:00;;;;;;;7.53;7.22;;;;;;;-143.83;100.00;62900.06;5110605;27;20031;-62
2022/08/01 05:51:26;;;;;;;7.30;7.00;;;;;;;-143.83;100.00;62900.06;5111639;27;20031;-62
2022/08/01 05:53:52;;;;;;;6.90;6.60;;;;;;;-143.83;100.00;62900.06;5118370;27;20039;-62
2022/08/01 05:56:18;;;;;;;7.13;6.82;;;;;;;-143.83;100.00;62900.06;5117058;27;20031;-61
2022/08/01 05:58:44;;;;;;;6.90;6.60;;;;;;;-143.83;100.00;62900.06;5109128;27;20015;-61
2022/08/01 06:01:09;;;;;;;7.00;6.70;;;;;;;-143.83;100.00;62900.06;5105215;28;20684;-62
2022/08/01 06:03:35;;;;;;;7.25;6.95;;;;;;;-143.83;100.00;62900.06;5096532;28;20059;-63
2022/08/01 06:06:01;;;;;;;7.50;7.20;;;;;;;-143.83;100.00;62900.06;5103023;28;20028;-64
2022/08/01 06:08:27;;;;;;;7.53;7.22;;;;;;;-143.83;100.00;62900.06;5111743;27;20487;-62
2022/08/01 06:10:52;;;;;;;7.85;7.55;;;;;;;-143.83;100.00;62900.06;5112383;27;20034;-62
2022/08/01 06:13:21;;;;;;;7.50;7.20;;;;;;;-143.83;100.00;62900.06;5116977;27;20032;-63
2022/08/01 06:15:47;;;;;;;7.47;7.18;;;;;;;-143.83;100.00;62900.06;5107140;27;20023;-63
2022/08/01 06:18:14;;;;;;;7.60;7.30;;;;;;;-143.83;100.00;62900.06;5110122;27;20355;-62
2022/08/01 06:20:40;;;;;;;7.18;6.88;;;;;;;-143.83;100.00;62900.06;5110881;28;20137;-62
2022/08/01 06:23:05;;;;;;;7.28;6.97;;;;;;;-143.83;100.00;62900.06;5106744;28;20107;-63
2022/08/01 06:25:31;;;;;;;7.10;6.80;;;;;;;-143.83;100.00;62900.06;5105045;28;20118;-63
2022/08/01 06:27:56;;;;;;;7.40;7.10;;;;;;;-143.83;100.00;62900.06;5108210;28;20144;-64
2022/08/01 06:30:22;;;;;;;7.53;7.22;;;;;;;-143.83;100.00;62900.06;5108549;28;21552;-64
2022/08/01 06:32:48;;;;;;;7.60;7.30;;;;;;;-143.83;100.00;62900.06;5107666;28;20394;-63
2022/08/01 06:35:14;;;;;;;7.68;7.38;;;;;;;-143.83;100.00;62900.06;5114501;28;20386;-64
2022/08/01 06:37:40;;;;;;;7.40;7.10;;;;;;;-143.83;100.00;62900.06;5107167;28;20031;-63
2022/08/01 06:40:08;;;;;;;7.10;6.80;;;;;;;-143.83;100.00;62900.06;5115885;28;20031;-63
2022/08/01 06:42:35;;;;;;;7.32;7.03;;;;;;;-143.83;100.00;62900.06;5102463;27;20056;-63
2022/08/01 06:45:11;;;;;;;7.43;7.13;;;;;;;-143.83;100.00;62900.06;5105513;28;20404;-63
2022/08/01 06:47:38;;;;;;;7.68;7.38;;;;;;;-143.83;100.00;62900.06;5097769;28;20346;-64
2022/08/01 06:50:05;;;;;;;7.65;7.35;;;;;;;-143.83;100.00;62900.06;5113853;28;20064;-63
2022/08/01 06:52:30;;;;;;;7.50;7.20;;;;;;;-143.83;100.00;62900.06;5107615;28;20077;-63
2022/08/01 06:54:56;;;;;;;7.25;6.95;;;;;;;-143.83;100.00;62900.06;5111075;28;20062;-63
2022/08/01 06:57:21;;;;;;;7.28;6.97;;;;;;;-143.83;100.00;62900.06;5107270;28;20112;-63
2022/08/01 06:59:47;;;;;;;7.30;7.00;;;;;;;-143.83;100.00;62900.06;5116366;27;20478;-63
2022/08/01 07:02:13;;;;;;;7.40;7.10;;;;;;;-143.83;100.00;62900.06;5113994;28;20031;-64
2022/08/01 07:04:38;;;;;;;7.30;7.00;;;;;;;-143.83;100.00;62900.06;5111276;28;20032;-64
2022/08/01 07:07:04;;;;;;;7.05;6.75;;;;;;;-143.83;100.00;62900.06;5116048;28;20541;-64
2022/08/01 07:09:29;;;;;;;7.30;7.00;;;;;;;-143.83;100.00;62900.06;5123165;28;20359;-64
2022/08/01 07:11:55;;;;;;;7.35;7.05;;;;;;;-143.83;100.00;62900.06;5113659;28;20441;-64
2022/08/01 07:14:22;;;;;;;7.25;6.95;;;;;;;-143.83;100.00;62900.06;5115889;28;20031;-65
2022/08/01 07:16:48;;;;;;;7.60;7.30;;;;;;;-143.83;100.00;62900.06;5108580;27;20375;-63
2022/08/01 07:19:13;;;;;;;7.30;7.00;;;;;;;-143.83;100.00;62900.06;5108356;27;20038;-64
2022/08/01 07:21:39;;;;;;;7.30;7.00;;;;;;;-143.83;100.00;62900.06;5111769;27;20770;-64
2022/08/01 07:24:06;;;;;;;7.40;7.10;;;;;;;-143.83;100.00;62900.06;5114921;27;20051;-64
2022/08/01 07:26:32;;;;;;;7.40;7.10;;;;;;;-143.83;100.00;62900.06;5122611;27;20405;-65
2022/08/01 07:28:57;;;;;;;7.50;7.20;;;;;;;-143.83;100.00;62900.06;5111542;27;20024;-64
2022/08/01 07:31:23;;;;;;;7.30;7.00;;;;;;;-143.83;100.00;62900.06;5113989;27;20032;-63
2022/08/01 07:33:49;;;;;;;7.50;7.20;;;;;;;-143.83;100.00;62900.06;5112209;27;20354;-63
2022/08/01 07:36:17;;;;;;;7.70;7.40;;;;;;;-143.83;100.00;62900.06;5111023;27;20040;-63
2022/08/01 07:38:44;;;;;;;7.80;7.50;;;;;;;-143.83;100.00;62900.06;5111869;27;20039;-63
2022/08/01 07:41:10;;;;;;;7.70;7.40;;;;;;;-143.83;100.00;62900.06;5111974;27;20378;-63
2022/08/01 07:43:38;;;;;;;7.40;7.10;;;;;;;-143.83;100.00;62900.06;5115716;27;20070;-64
2022/08/01 07:46:04;;;;;;;7.20;6.90;;;;;;;-143.83;100.00;62900.06;5117936;27;20028;-63
2022/08/01 07:48:30;;;;;;;7.28;6.97;;;;;;;-143.83;100.00;62900.06;5112974;27;20034;-64
2022/08/01 07:50:55;;;;;;;7.07;6.78;;;;;;;-143.83;100.00;62900.06;5106414;27;20035;-63
2022/08/01 07:53:21;;;;;;;7.40;7.10;;;;;;;-143.83;100.00;62900.06;5103545;27;20180;-61
2022/08/01 07:55:47;;;;;;;7.30;7.00;;;;;;;-143.83;100.00;62900.06;5108197;28;20028;-62
2022/08/01 07:58:13;;;;;;;7.40;7.10;;;;;;;-143.83;100.00;62900.06;5099736;28;20592;-63
2022/08/01 08:00:39;;;;;;;7.25;6.95;;;;;;;-143.83;100.00;62900.06;5110926;28;20031;-63
2022/08/01 08:03:05;;;;;;;7.40;7.10;;;;;;;-143.83;100.00;62900.06;5112794;28;20035;-63
2022/08/01 08:05:34;;;;;;;7.47;7.18;;;;;;;-143.83;100.00;62900.06;5107601;28;20094;-63
2022/08/01 08:08:01;;;;;;;7.35;7.05;;;;;;;-143.83;100.00;62900.06;5115247;27;20059;-62
2022/08/01 08:10:26;;;;;;;7.47;7.18;;;;;;;-143.83;100.00;62900.06;5111909;28;20022;-63
2022/08/01 08:12:52;;;;;;;7.28;6.97;;;;;;;-143.83;100.00;62900.06;5111795;28;20021;-61
2022/08/01 08:15:18;;;;;;;7.32;7.03;;;;;;;-143.83;100.00;62900.06;5110063;27;20027;-63
2022/08/01 08:17:43;;;;;;;7.20;6.90;;;;;;;-143.83;100.00;62900.06;5107644;28;20048;-62
2022/08/01 08:20:09;;;;;;;7.10;6.80;;;;;;;-143.83;100.00;62900.06;5112655;28;20587;-62
2022/08/01 08:22:35;;;;;;;7.15;6.85;;;;;;;-143.83;100.00;62900.06;5112568;28;20026;-62
2022/08/01 08:25:01;;;;;;;7.40;7.10;;;;;;;-143.83;100.00;62900.06;5112380;27;20031;-63
2022/08/01 08:27:26;;;;;;;7.13;6.82;;;;;;;-143.83;100.00;62900.06;5112008;28;20083;-62
2022/08/01 08:29:52;;;;;;;7.47;7.18;;;;;;;-143.83;100.00;62900.06;5099055;28;20031;-62
2022/08/01 08:32:17;;;;;;;7.50;7.20;;;;;;;-143.83;100.00;62900.06;5102953;28;20069;-64
2022/08/01 08:34:43;;;;;;;7.40;7.10;;;;;;;-143.83;100.00;62900.06;5098401;28;20019;-64
2022/08/01 08:37:10;;;;;;;7.40;7.10;;;;;;;-143.83;100.00;62900.06;5107084;28;20475;-64
2022/08/01 08:39:35;;;;;;;7.25;6.95;;;;;;;-143.83;100.00;62900.06;5101569;28;20080;-63
2022/08/01 08:42:01;;;;;;;7.47;7.18;;;;;;;-143.83;100.00;62900.06;5098988;27;20123;-63
2022/08/01 08:44:27;;;;;;;7.35;7.05;;;;;;;-143.83;100.00;62900.06;5102898;28;20153;-64
2022/08/01 08:46:55;;;;;;;7.55;7.25;;;;;;;-143.83;100.00;62900.06;5109823;28;20103;-66
2022/08/01 08:49:26;;;;;;;7.30;7.00;;;;;;;-143.83;100.00;62900.06;5100782;28;20016;-63
2022/08/01 08:51:53;;;;;;;7.18;6.88;;;;;;;-143.83;100.00;62900.06;5098407;28;20062;-62
2022/08/01 08:54:23;;;;;;;7.70;7.40;;;;;;;-143.83;100.00;62900.06;5107058;28;20023;-62
2022/08/01 08:56:51;;;;;;;7.20;6.90;;;;;;;-143.83;100.00;62900.06;5111473;28;20475;-62
2022/08/01 08:59:17;;;;;;;7.57;7.28;;;;;;;-143.83;100.00;62900.06;5109456;28;20034;-62
2022/08/01 09:01:43;;;;;;;7.40;7.10;;;;;;;-143.83;100.00;62900.06;5111280;28;20027;-62
2022/08/01 09:04:09;;;;;;;7.30;7.00;;;;;;;-143.83;100.00;62900.06;5112370;28;20039;-63
2022/08/01 09:06:35;;;;;;;7.10;6.80;;;;;;;-143.83;100.00;62900.06;5112455;28;20035;-62
2022/08/01 09:09:00;;;;;;;7.22;6.93;;;;;;;-143.83;100.00;62900.06;5113467;28;20015;-62
2022/08/01 09:11:26;;;;;;;7.05;6.75;;;;;;;-143.83;100.00;62900.06;5113522;28;20059;-62
2022/08/01 09:14:12;;;;;;;7.20;6.90;;;;;;;-143.83;100.00;62900.06;5113436;28;20095;-62
2022/08/01 09:16:43;;;;;;;7.30;7.00;;;;;;;-143.83;100.00;62900.06;5112012;28;20387;-61
2022/08/01 09:19:10;;;;;;;7.20;6.90;;;;;;;-143.83;100.00;62900.06;5113785;28;20054;-62
2022/08/01 09:21:36;;;;;;;7.15;6.85;;;;;;;-143.83;100.00;62900.06;5113416;28;20067;-62
2022/08/01 09:24:05;;;;;;;7.20;6.90;;;;;;;-143.83;100.00;62900.06;5113857;28;20035;-63
2022/08/01 09:26:34;;;;;;;7.05;6.75;;;;;;;-143.83;100.00;62900.06;5113696;28;20024;-61
2022/08/01 09:29:04;;;;;;;7.22;6.93;;;;;;;-143.83;100.00;62900.06;5113303;28;20108;-63
2022/08/01 09:31:42;;;;;;;7.20;6.90;;;;;;;-143.83;100.00;62900.06;5112249;28;20031;-63
2022/08/01 09:34:09;;;;;;;7.13;6.82;;;;;;;-143.83;100.00;62900.06;5103669;28;20103;-61
2022/08/01 09:36:51;;;;;;;7.15;6.85;;;;;;;-143.83;100.00;62900.06;5112618;28;20023;-63
2022/08/01 09:39:18;;;;;;;6.80;6.50;;;;;;;-143.83;100.00;62900.06;5112604;28;20031;-62
2022/08/01 09:41:43;;;;;;;7.15;6.85;;;;;;;-143.83;100.00;62900.06;5112141;28;20040;-62
2022/08/01 09:44:09;;;;;;;7.10;6.80;;;;;;;-143.83;100.00;62900.06;5112602;28;20027;-62
2022/08/01 09:46:36;;;;;;;7.00;6.70;;;;;;;-143.83;100.00;62900.06;5112922;28;20095;-62
2022/08/01 09:49:06;;;;;;;7.30;7.00;;;;;;;-143.83;100.00;62900.06;5111644;28;20027;-63
2022/08/01 09:51:39;;;;;;;6.90;6.60;;;;;;;-143.83;100.00;62900.06;5112922;28;20132;-64
2022/08/01 09:54:06;;;;;;;6.97;6.68;;;;;;;-143.83;100.00;62900.06;5112625;28;20046;-62
2022/08/01 09:56:42;;;;;;;7.30;7.00;;;;;;;-143.83;100.00;62900.06;5112336;28;20019;-62
2022/08/01 09:59:09;;;;;;;7.03;6.72;;;;;;;-143.83;100.00;62900.06;5112269;28;20038;-63
2022/08/01 10:01:50;;;;;;;7.20;6.90;;;;;;;-143.83;100.00;62900.06;5112241;28;20020;-62
2022/08/01 10:04:17;;;;;;;7.07;6.78;;;;;;;-143.83;100.00;62900.06;5116845;27;20096;-62
2022/08/01 10:06:49;;;;;;;7.20;6.90;;;;;;;-143.83;100.00;62900.06;5111471;28;20035;-63
2022/08/01 10:09:15;;;;;;;7.60;7.30;;;;;;;-143.83;100.00;62900.06;5107531;28;20031;-62
2022/08/01 10:11:42;;;;;;;7.10;6.80;;;;;;;-143.83;100.00;62900.06;5101680;28;20039;-62
2022/08/01 10:14:08;;;;;;;6.93;6.63;;;;;;;-143.83;100.00;62900.06;5107026;28;20035;-62
2022/08/01 10:16:38;;;;;;;7.10;6.80;;;;;;;-143.83;100.00;62900.06;5112109;28;20031;-62
2022/08/01 10:19:07;;;;;;;6.95;6.65;;;;;;;-143.83;100.00;62900.06;5105845;28;20028;-62
2022/08/01 10:21:34;;;;;;;6.80;6.50;;;;;;;-143.83;100.00;62900.06;5112517;28;20494;-62
2022/08/01 10:24:03;;;;;;;7.28;6.97;;;;;;;-143.83;100.00;62900.06;5107906;28;20042;-63
2022/08/01 10:26:32;;;;;;;7.07;6.78;;;;;;;-143.83;100.00;62900.06;5109473;28;20512;-63
2022/08/01 10:28:57;;;;;;;7.20;6.90;;;;;;;-143.83;100.00;62900.06;5105380;28;20483;-64
2022/08/01 10:31:23;;;;;;;7.38;7.07;;;;;;;-143.83;100.00;62900.06;5108710;28;20040;-63
2022/08/01 10:33:50;;;;;;;7.10;6.80;;;;;;;-143.83;100.00;62900.06;5110634;28;20436;-64
2022/08/01 10:36:18;;;;;;;7.28;6.97;;;;;;;-143.83;100.00;62900.06;5114706;27;20114;-63
2022/08/01 10:38:44;;;;;;;7.07;6.78;;;;;;;-143.83;100.00;62900.06;5109275;28;20039;-63
2022/08/01 10:41:15;;;;;;;7.20;6.90;;;;;;;-143.83;100.00;62900.06;5108217;28;20587;-63
2022/08/01 10:43:41;;;;;;;7.05;6.75;;;;;;;-143.83;100.00;62900.06;5097708;28;20055;-63
2022/08/01 10:46:07;;;;;;;7.20;6.90;;;;;;;-143.83;100.00;62900.06;5096194;28;20030;-63
2022/08/01 10:48:38;;;;;;;7.45;7.15;;;;;;;-143.83;100.00;62900.06;5108448;28;20110;-64
2022/08/01 10:51:04;;;;;;;7.30;7.00;;;;;;;-143.83;100.00;62900.06;5111799;28;20505;-64
2022/08/01 10:53:30;;;;;;;7.22;6.93;;;;;;;-143.83;100.00;62900.06;5108627;27;20038;-64
2022/08/01 10:55:56;;;;;;;7.32;7.03;;;;;;;-143.83;100.00;62900.06;5118412;27;20027;-65
2022/08/01 10:58:32;;;;;;;7.32;7.03;;;;;;;-143.83;100.00;62900.06;5107069;28;20024;-65
2022/08/01 11:01:17;;;;;;;7.30;7.00;;;;;;;-143.83;100.00;62900.06;5109064;28;20432;-65
2022/08/01 11:04:03;;;;;;;7.10;6.80;;;;;;;-143.83;100.00;62900.06;5111243;28;20015;-65
2022/08/01 11:06:32;;;;;;;7.47;7.18;;;;;;;-143.83;100.00;62900.06;5093403;28;20035;-65
2022/08/01 11:08:59;;;;;;;7.20;6.90;;;;;;;-143.83;100.00;62900.06;5111416;28;20024;-65
2022/08/01 11:11:25;;;;;;;7.53;7.22;;;;;;;-143.83;100.00;62900.06;5111298;28;20039;-65
2022/08/01 11:14:15;;;;;;;7.50;7.20;;;;;;;-143.83;100.00;62900.06;5109184;28;20501;-65